sensor_id;sensor_type;location;lat;lon;timestamp;temperature;humidity
23717;DHT22;22094;52.130;5.598;2023-08-08T00:00:36;13.20;99.90
23717;DHT22;22094;52.130;5.598;2023-08-08T00:03:01;13.20;99.90
23717;DHT22;22094;52.130;5.598;2023-08-08T00:05:27;13.20;99.90
23717;DHT22;22094;52.130;5.598;2023-08-08T00:07:56;13.30;99.90
23717;DHT22;22094;52.130;5.598;2023-08-08T00:10:27;13.40;99.90
23717;DHT22;22094;52.130;5.598;2023-08-08T00:12:53;13.90;99.90
23717;DHT22;22094;52.130;5.598;2023-08-08T00:15:27;13.50;99.90
23717;DHT22;22094;52.130;5.598;2023-08-08T00:17:56;13.50;99.90
23717;DHT22;22094;52.130;5.598;2023-08-08T00:20:28;13.60;99.90
23717;DHT22;22094;52.130;5.598;2023-08-08T00:22:57;13.60;99.90
23717;DHT22;22094;52.130;5.598;2023-08-08T00:25:23;13.70;99.90
23717;DHT22;22094;52.130;5.598;2023-08-08T00:27:50;13.80;99.90
23717;DHT22;22094;52.130;5.598;2023-08-08T00:30:16;14.40;99.90
23717;DHT22;22094;52.130;5.598;2023-08-08T00:32:41;13.80;99.90
23717;DHT22;22094;52.130;5.598;2023-08-08T00:35:07;13.80;99.90
23717;DHT22;22094;52.130;5.598;2023-08-08T00:37:33;13.90;99.90
23717;DHT22;22094;52.130;5.598;2023-08-08T00:39:59;13.90;99.90
23717;DHT22;22094;52.130;5.598;2023-08-08T00:42:24;13.90;99.90
23717;DHT22;22094;52.130;5.598;2023-08-08T00:44:50;13.90;99.90
23717;DHT22;22094;52.130;5.598;2023-08-08T00:47:15;13.90;99.90
23717;DHT22;22094;52.130;5.598;2023-08-08T00:49:41;14.10;99.90
23717;DHT22;22094;52.130;5.598;2023-08-08T00:52:09;13.90;99.90
23717;DHT22;22094;52.130;5.598;2023-08-08T00:54:35;13.90;99.90
23717;DHT22;22094;52.130;5.598;2023-08-08T00:57:01;13.90;99.90
23717;DHT22;22094;52.130;5.598;2023-08-08T00:59:27;13.80;99.90
23717;DHT22;22094;52.130;5.598;2023-08-08T01:01:53;13.90;99.90
23717;DHT22;22094;52.130;5.598;2023-08-08T01:04:19;13.80;99.90
23717;DHT22;22094;52.130;5.598;2023-08-08T01:09:33;13.90;99.90
23717;DHT22;22094;52.130;5.598;2023-08-08T01:12:01;13.90;99.90
23717;DHT22;22094;52.130;5.598;2023-08-08T01:14:29;13.90;99.90
23717;DHT22;22094;52.130;5.598;2023-08-08T01:16:56;13.90;99.90
23717;DHT22;22094;52.130;5.598;2023-08-08T01:19:30;13.90;99.90
23717;DHT22;22094;52.130;5.598;2023-08-08T01:22:02;14.00;99.90
23717;DHT22;22094;52.130;5.598;2023-08-08T01:24:30;14.00;99.90
23717;DHT22;22094;52.130;5.598;2023-08-08T01:26:59;14.00;99.90
23717;DHT22;22094;52.130;5.598;2023-08-08T01:29:25;14.00;99.90
23717;DHT22;22094;52.130;5.598;2023-08-08T01:31:51;14.10;99.90
23717;DHT22;22094;52.130;5.598;2023-08-08T01:34:17;14.10;99.90
23717;DHT22;22094;52.130;5.598;2023-08-08T01:36:50;14.10;99.90
23717;DHT22;22094;52.130;5.598;2023-08-08T01:39:22;14.10;99.90
23717;DHT22;22094;52.130;5.598;2023-08-08T01:41:50;14.10;99.90
23717;DHT22;22094;52.130;5.598;2023-08-08T01:44:17;14.10;99.90
23717;DHT22;22094;52.130;5.598;2023-08-08T01:46:43;14.10;99.90
23717;DHT22;22094;52.130;5.598;2023-08-08T01:49:09;14.20;99.90
23717;DHT22;22094;52.130;5.598;2023-08-08T01:51:35;14.10;99.90
23717;DHT22;22094;52.130;5.598;2023-08-08T01:54:00;14.10;99.90
23717;DHT22;22094;52.130;5.598;2023-08-08T01:56:26;14.10;99.90
23717;DHT22;22094;52.130;5.598;2023-08-08T01:58:51;14.10;99.90
23717;DHT22;22094;52.130;5.598;2023-08-08T02:01:17;14.10;99.90
23717;DHT22;22094;52.130;5.598;2023-08-08T02:03:43;14.10;99.90
23717;DHT22;22094;52.130;5.598;2023-08-08T02:06:08;14.10;99.90
23717;DHT22;22094;52.130;5.598;2023-08-08T02:08:34;14.10;99.90
23717;DHT22;22094;52.130;5.598;2023-08-08T02:11:00;14.30;99.90
23717;DHT22;22094;52.130;5.598;2023-08-08T02:13:25;14.10;99.90
23717;DHT22;22094;52.130;5.598;2023-08-08T02:15:51;14.10;99.90
23717;DHT22;22094;52.130;5.598;2023-08-08T02:18:18;14.10;99.90
23717;DHT22;22094;52.130;5.598;2023-08-08T02:20:43;14.40;99.90
23717;DHT22;22094;52.130;5.598;2023-08-08T02:23:09;14.20;99.90
23717;DHT22;22094;52.130;5.598;2023-08-08T02:25:35;14.20;99.90
23717;DHT22;22094;52.130;5.598;2023-08-08T02:28:00;14.20;99.90
23717;DHT22;22094;52.130;5.598;2023-08-08T02:30:26;14.20;99.90
23717;DHT22;22094;52.130;5.598;2023-08-08T02:32:52;14.20;99.90
23717;DHT22;22094;52.130;5.598;2023-08-08T02:35:18;14.20;99.90
23717;DHT22;22094;52.130;5.598;2023-08-08T02:37:43;14.20;99.90
23717;DHT22;22094;52.130;5.598;2023-08-08T02:40:09;14.20;99.90
23717;DHT22;22094;52.130;5.598;2023-08-08T02:42:35;14.20;99.90
23717;DHT22;22094;52.130;5.598;2023-08-08T02:45:01;14.10;99.90
23717;DHT22;22094;52.130;5.598;2023-08-08T02:47:26;14.10;99.90
23717;DHT22;22094;52.130;5.598;2023-08-08T02:49:52;14.10;99.90
23717;DHT22;22094;52.130;5.598;2023-08-08T02:52:18;14.00;99.90
23717;DHT22;22094;52.130;5.598;2023-08-08T02:54:43;14.00;99.90
23717;DHT22;22094;52.130;5.598;2023-08-08T02:57:09;14.00;99.90
23717;DHT22;22094;52.130;5.598;2023-08-08T02:59:38;14.30;99.90
23717;DHT22;22094;52.130;5.598;2023-08-08T03:02:04;13.80;99.90
23717;DHT22;22094;52.130;5.598;2023-08-08T03:04:30;13.90;99.90
23717;DHT22;22094;52.130;5.598;2023-08-08T03:06:55;13.80;99.90
23717;DHT22;22094;52.130;5.598;2023-08-08T03:09:21;13.80;99.90
23717;DHT22;22094;52.130;5.598;2023-08-08T03:11:47;13.90;99.90
23717;DHT22;22094;52.130;5.598;2023-08-08T03:14:13;13.80;99.90
23717;DHT22;22094;52.130;5.598;2023-08-08T03:16:39;14.30;99.90
23717;DHT22;22094;52.130;5.598;2023-08-08T03:19:05;13.80;99.90
23717;DHT22;22094;52.130;5.598;2023-08-08T03:21:30;13.80;99.90
23717;DHT22;22094;52.130;5.598;2023-08-08T03:23:57;13.80;99.90
23717;DHT22;22094;52.130;5.598;2023-08-08T03:26:23;13.80;99.90
23717;DHT22;22094;52.130;5.598;2023-08-08T03:28:49;13.80;99.90
23717;DHT22;22094;52.130;5.598;2023-08-08T03:31:16;13.90;99.90
23717;DHT22;22094;52.130;5.598;2023-08-08T03:33:43;13.90;99.90
23717;DHT22;22094;52.130;5.598;2023-08-08T03:36:09;13.90;99.90
23717;DHT22;22094;52.130;5.598;2023-08-08T03:38:35;13.90;99.90
23717;DHT22;22094;52.130;5.598;2023-08-08T03:41:00;13.90;99.90
23717;DHT22;22094;52.130;5.598;2023-08-08T03:43:26;14.00;99.90
23717;DHT22;22094;52.130;5.598;2023-08-08T03:45:52;14.00;99.90
23717;DHT22;22094;52.130;5.598;2023-08-08T03:48:17;13.90;99.90
23717;DHT22;22094;52.130;5.598;2023-08-08T03:50:43;14.00;99.90
23717;DHT22;22094;52.130;5.598;2023-08-08T03:53:09;14.00;99.90
23717;DHT22;22094;52.130;5.598;2023-08-08T03:55:34;13.90;99.90
23717;DHT22;22094;52.130;5.598;2023-08-08T03:58:00;14.00;99.90
23717;DHT22;22094;52.130;5.598;2023-08-08T04:00:34;14.00;99.90
23717;DHT22;22094;52.130;5.598;2023-08-08T04:03:01;14.00;99.90
23717;DHT22;22094;52.130;5.598;2023-08-08T04:05:26;14.30;99.90
23717;DHT22;22094;52.130;5.598;2023-08-08T04:07:52;13.90;99.90
23717;DHT22;22094;52.130;5.598;2023-08-08T04:10:17;13.80;99.90
23717;DHT22;22094;52.130;5.598;2023-08-08T04:12:43;14.20;99.90
23717;DHT22;22094;52.130;5.598;2023-08-08T04:15:09;13.90;99.90
23717;DHT22;22094;52.130;5.598;2023-08-08T04:17:35;13.90;99.90
23717;DHT22;22094;52.130;5.598;2023-08-08T04:20:00;13.90;99.90
23717;DHT22;22094;52.130;5.598;2023-08-08T04:22:26;13.80;99.90
23717;DHT22;22094;52.130;5.598;2023-08-08T04:24:52;14.10;99.90
23717;DHT22;22094;52.130;5.598;2023-08-08T04:27:17;13.80;99.90
23717;DHT22;22094;52.130;5.598;2023-08-08T04:29:43;13.70;99.90
23717;DHT22;22094;52.130;5.598;2023-08-08T04:32:12;13.60;99.90
23717;DHT22;22094;52.130;5.598;2023-08-08T04:34:38;13.70;99.90
23717;DHT22;22094;52.130;5.598;2023-08-08T04:37:03;13.60;99.90
23717;DHT22;22094;52.130;5.598;2023-08-08T04:39:32;13.60;99.90
23717;DHT22;22094;52.130;5.598;2023-08-08T04:41:58;13.60;99.90
23717;DHT22;22094;52.130;5.598;2023-08-08T04:46:50;13.70;99.90
23717;DHT22;22094;52.130;5.598;2023-08-08T04:49:15;13.70;99.90
23717;DHT22;22094;52.130;5.598;2023-08-08T04:51:41;13.70;99.90
23717;DHT22;22094;52.130;5.598;2023-08-08T04:54:07;13.80;99.90
23717;DHT22;22094;52.130;5.598;2023-08-08T04:56:32;14.00;99.90
23717;DHT22;22094;52.130;5.598;2023-08-08T04:58:58;13.80;99.90
23717;DHT22;22094;52.130;5.598;2023-08-08T05:01:24;12.90;99.90
23717;DHT22;22094;52.130;5.598;2023-08-08T05:03:49;13.70;99.90
23717;DHT22;22094;52.130;5.598;2023-08-08T05:11:08;13.80;99.90
23717;DHT22;22094;52.130;5.598;2023-08-08T05:13:33;13.80;99.90
23717;DHT22;22094;52.130;5.598;2023-08-08T05:15:59;13.80;99.90
23717;DHT22;22094;52.130;5.598;2023-08-08T05:23:23;13.90;99.90
23717;DHT22;22094;52.130;5.598;2023-08-08T05:25:48;16.50;99.90
23717;DHT22;22094;52.130;5.598;2023-08-08T05:28:14;14.20;99.90
23717;DHT22;22094;52.130;5.598;2023-08-08T05:30:39;14.10;99.90
23717;DHT22;22094;52.130;5.598;2023-08-08T05:35:31;14.10;99.90
23717;DHT22;22094;52.130;5.598;2023-08-08T05:40:23;14.00;88.90
23717;DHT22;22094;52.130;5.598;2023-08-08T05:42:49;13.60;98.60
23717;DHT22;22094;52.130;5.598;2023-08-08T05:45:14;14.80;99.90
23717;DHT22;22094;52.130;5.598;2023-08-08T05:47:40;14.20;99.90
23717;DHT22;22094;52.130;5.598;2023-08-08T05:50:06;14.30;99.90
23717;DHT22;22094;52.130;5.598;2023-08-08T05:52:35;14.40;90.30
23717;DHT22;22094;52.130;5.598;2023-08-08T05:55:01;15.00;45.80
23717;DHT22;22094;52.130;5.598;2023-08-08T05:57:26;16.50;44.50
23717;DHT22;22094;52.130;5.598;2023-08-08T06:02:21;14.50;9.80
23717;DHT22;22094;52.130;5.598;2023-08-08T06:12:07;13.80;1.00
23717;DHT22;22094;52.130;5.598;2023-08-08T06:14:33;15.30;1.00
23717;DHT22;22094;52.130;5.598;2023-08-08T06:19:27;15.30;1.00
23717;DHT22;22094;52.130;5.598;2023-08-08T06:26:48;15.70;1.00
23717;DHT22;22094;52.130;5.598;2023-08-08T06:29:14;15.70;1.00
23717;DHT22;22094;52.130;5.598;2023-08-08T06:31:40;16.80;76.70
23717;DHT22;22094;52.130;5.598;2023-08-08T06:36:39;16.10;1.00
23717;DHT22;22094;52.130;5.598;2023-08-08T06:48:50;18.00;1.00
23717;DHT22;22094;52.130;5.598;2023-08-08T07:08:20;20.50;99.90
23717;DHT22;22094;52.130;5.598;2023-08-08T07:20:32;18.20;99.90
23717;DHT22;22094;52.130;5.598;2023-08-08T07:30:18;17.40;1.00
23717;DHT22;22094;52.130;5.598;2023-08-08T07:49:47;17.80;1.00
23717;DHT22;22094;52.130;5.598;2023-08-08T07:54:41;18.20;1.00
23717;DHT22;22094;52.130;5.598;2023-08-08T07:57:06;18.00;1.00
23717;DHT22;22094;52.130;5.598;2023-08-08T08:01:58;18.60;1.00
23717;DHT22;22094;52.130;5.598;2023-08-08T08:09:16;17.60;1.00
23717;DHT22;22094;52.130;5.598;2023-08-08T08:16:33;18.80;1.00
23717;DHT22;22094;52.130;5.598;2023-08-08T08:18:59;19.00;1.00
23717;DHT22;22094;52.130;5.598;2023-08-08T08:23:50;17.00;1.00
23717;DHT22;22094;52.130;5.598;2023-08-08T08:40:54;19.10;1.00
23717;DHT22;22094;52.130;5.598;2023-08-08T08:43:21;16.80;1.00
23717;DHT22;22094;52.130;5.598;2023-08-08T08:45:52;18.10;1.00
23717;DHT22;22094;52.130;5.598;2023-08-08T08:48:18;19.40;1.00
23717;DHT22;22094;52.130;5.598;2023-08-08T08:50:47;19.40;1.00
23717;DHT22;22094;52.130;5.598;2023-08-08T08:55:40;19.20;1.00
23717;DHT22;22094;52.130;5.598;2023-08-08T09:02:59;19.50;1.00
23717;DHT22;22094;52.130;5.598;2023-08-08T09:05:25;18.50;1.00
23717;DHT22;22094;52.130;5.598;2023-08-08T09:15:11;20.40;1.00
23717;DHT22;22094;52.130;5.598;2023-08-08T09:17:41;18.50;1.00
23717;DHT22;22094;52.130;5.598;2023-08-08T09:20:08;21.80;1.00
23717;DHT22;22094;52.130;5.598;2023-08-08T09:42:07;19.00;1.00
23717;DHT22;22094;52.130;5.598;2023-08-08T09:54:19;19.90;1.00
23717;DHT22;22094;52.130;5.598;2023-08-08T10:01:40;19.20;1.00
23717;DHT22;22094;52.130;5.598;2023-08-08T10:09:02;19.40;1.00
23717;DHT22;22094;52.130;5.598;2023-08-08T10:11:30;19.30;1.00
23717;DHT22;22094;52.130;5.598;2023-08-08T10:19:00;19.50;1.00
23717;DHT22;22094;52.130;5.598;2023-08-08T10:21:26;20.00;1.00
23717;DHT22;22094;52.130;5.598;2023-08-08T10:24:05;19.80;1.00
23717;DHT22;22094;52.130;5.598;2023-08-08T10:29:00;19.70;1.00
23717;DHT22;22094;52.130;5.598;2023-08-08T10:34:04;20.30;1.00
23717;DHT22;22094;52.130;5.598;2023-08-08T10:36:44;19.60;1.00
23717;DHT22;22094;52.130;5.598;2023-08-08T10:39:15;20.40;1.00
23717;DHT22;22094;52.130;5.598;2023-08-08T10:41:49;20.30;1.00
23717;DHT22;22094;52.130;5.598;2023-08-08T10:44:23;20.20;1.00
23717;DHT22;22094;52.130;5.598;2023-08-08T10:46:50;20.10;1.00
23717;DHT22;22094;52.130;5.598;2023-08-08T10:49:17;20.10;1.00
23717;DHT22;22094;52.130;5.598;2023-08-08T10:51:44;20.00;1.00
23717;DHT22;22094;52.130;5.598;2023-08-08T10:54:16;19.60;1.00
23717;DHT22;22094;52.130;5.598;2023-08-08T10:56:50;20.20;1.00
23717;DHT22;22094;52.130;5.598;2023-08-08T10:59:19;20.30;1.00
23717;DHT22;22094;52.130;5.598;2023-08-08T11:01:46;20.50;1.00
23717;DHT22;22094;52.130;5.598;2023-08-08T11:04:13;20.30;1.00
23717;DHT22;22094;52.130;5.598;2023-08-08T11:11:42;20.50;1.00
23717;DHT22;22094;52.130;5.598;2023-08-08T11:14:12;20.40;1.00
23717;DHT22;22094;52.130;5.598;2023-08-08T11:21:34;20.40;1.00
23717;DHT22;22094;52.130;5.598;2023-08-08T11:24:01;21.80;1.00
23717;DHT22;22094;52.130;5.598;2023-08-08T11:26:27;20.50;1.00
23717;DHT22;22094;52.130;5.598;2023-08-08T11:33:49;20.40;1.00
23717;DHT22;22094;52.130;5.598;2023-08-08T11:38:42;20.10;1.00
23717;DHT22;22094;52.130;5.598;2023-08-08T11:41:10;20.00;1.00
23717;DHT22;22094;52.130;5.598;2023-08-08T11:43:38;20.00;1.00
23717;DHT22;22094;52.130;5.598;2023-08-08T11:48:32;20.40;1.00
23717;DHT22;22094;52.130;5.598;2023-08-08T11:50:58;20.50;1.00
23717;DHT22;22094;52.130;5.598;2023-08-08T11:58:16;20.70;1.00
23717;DHT22;22094;52.130;5.598;2023-08-08T12:00:43;20.90;99.90
23717;DHT22;22094;52.130;5.598;2023-08-08T12:03:11;21.80;1.00
23717;DHT22;22094;52.130;5.598;2023-08-08T12:10:32;21.40;1.00
23717;DHT22;22094;52.130;5.598;2023-08-08T12:12:58;21.90;1.00
23717;DHT22;22094;52.130;5.598;2023-08-08T12:15:35;21.70;1.00
23717;DHT22;22094;52.130;5.598;2023-08-08T12:18:02;23.90;1.00
23717;DHT22;22094;52.130;5.598;2023-08-08T12:20:29;23.60;1.00
23717;DHT22;22094;52.130;5.598;2023-08-08T12:22:57;20.60;1.00
23717;DHT22;22094;52.130;5.598;2023-08-08T12:27:48;22.80;1.00
23717;DHT22;22094;52.130;5.598;2023-08-08T12:30:14;21.10;1.00
23717;DHT22;22094;52.130;5.598;2023-08-08T12:32:40;23.70;1.00
23717;DHT22;22094;52.130;5.598;2023-08-08T12:42:25;20.60;1.00
23717;DHT22;22094;52.130;5.598;2023-08-08T12:44:50;19.80;1.00
23717;DHT22;22094;52.130;5.598;2023-08-08T12:47:19;20.50;99.90
23717;DHT22;22094;52.130;5.598;2023-08-08T12:49:46;20.20;99.90
23717;DHT22;22094;52.130;5.598;2023-08-08T13:06:48;21.40;99.90
23717;DHT22;22094;52.130;5.598;2023-08-08T13:14:07;22.80;99.90
23717;DHT22;22094;52.130;5.598;2023-08-08T13:16:33;22.20;99.90
23717;DHT22;22094;52.130;5.598;2023-08-08T13:18:59;21.40;99.90
23717;DHT22;22094;52.130;5.598;2023-08-08T13:21:24;20.90;1.00
23717;DHT22;22094;52.130;5.598;2023-08-08T13:23:50;20.30;99.90
23717;DHT22;22094;52.130;5.598;2023-08-08T13:26:16;21.10;99.90
23717;DHT22;22094;52.130;5.598;2023-08-08T13:31:08;21.10;1.00
23717;DHT22;22094;52.130;5.598;2023-08-08T13:33:34;22.80;99.90
23717;DHT22;22094;52.130;5.598;2023-08-08T13:36:00;22.40;99.90
23717;DHT22;22094;52.130;5.598;2023-08-08T13:38:26;22.80;99.90
23717;DHT22;22094;52.130;5.598;2023-08-08T13:40:51;20.60;99.90
23717;DHT22;22094;52.130;5.598;2023-08-08T13:45:43;21.20;99.90
23717;DHT22;22094;52.130;5.598;2023-08-08T13:48:09;20.10;1.00
23717;DHT22;22094;52.130;5.598;2023-08-08T13:50:35;20.20;99.90
23717;DHT22;22094;52.130;5.598;2023-08-08T13:53:01;20.10;99.90
23717;DHT22;22094;52.130;5.598;2023-08-08T13:55:27;19.80;99.90
23717;DHT22;22094;52.130;5.598;2023-08-08T14:00:21;20.80;1.00
23717;DHT22;22094;52.130;5.598;2023-08-08T14:07:39;20.40;1.00
23717;DHT22;22094;52.130;5.598;2023-08-08T14:10:05;21.40;1.00
23717;DHT22;22094;52.130;5.598;2023-08-08T14:14:57;19.00;99.90
23717;DHT22;22094;52.130;5.598;2023-08-08T14:19:49;21.10;1.00
23717;DHT22;22094;52.130;5.598;2023-08-08T14:22:14;18.60;1.00
23717;DHT22;22094;52.130;5.598;2023-08-08T14:24:42;20.90;99.90
23717;DHT22;22094;52.130;5.598;2023-08-08T14:29:35;20.40;1.00
23717;DHT22;22094;52.130;5.598;2023-08-08T14:32:00;20.20;99.90
23717;DHT22;22094;52.130;5.598;2023-08-08T14:34:33;21.00;99.90
23717;DHT22;22094;52.130;5.598;2023-08-08T14:36:59;21.80;99.90
23717;DHT22;22094;52.130;5.598;2023-08-08T14:41:51;21.70;99.90
23717;DHT22;22094;52.130;5.598;2023-08-08T14:44:17;21.30;99.90
23717;DHT22;22094;52.130;5.598;2023-08-08T14:46:43;18.70;99.90
23717;DHT22;22094;52.130;5.598;2023-08-08T14:49:08;22.00;99.90
23717;DHT22;22094;52.130;5.598;2023-08-08T14:51:35;21.90;99.90
23717;DHT22;22094;52.130;5.598;2023-08-08T14:54:01;21.90;99.90
23717;DHT22;22094;52.130;5.598;2023-08-08T14:56:27;23.50;99.90
23717;DHT22;22094;52.130;5.598;2023-08-08T14:58:52;20.60;99.90
23717;DHT22;22094;52.130;5.598;2023-08-08T15:01:18;19.60;99.90
23717;DHT22;22094;52.130;5.598;2023-08-08T15:03:44;20.50;99.90
23717;DHT22;22094;52.130;5.598;2023-08-08T15:06:10;22.40;99.90
23717;DHT22;22094;52.130;5.598;2023-08-08T15:08:36;20.20;99.90
23717;DHT22;22094;52.130;5.598;2023-08-08T15:13:28;19.60;99.90
23717;DHT22;22094;52.130;5.598;2023-08-08T15:15:53;23.40;99.90
23717;DHT22;22094;52.130;5.598;2023-08-08T15:18:19;22.50;99.90
23717;DHT22;22094;52.130;5.598;2023-08-08T15:20:45;21.20;99.90
23717;DHT22;22094;52.130;5.598;2023-08-08T15:23:10;21.10;99.90
23717;DHT22;22094;52.130;5.598;2023-08-08T15:25:37;21.10;99.90
23717;DHT22;22094;52.130;5.598;2023-08-08T15:28:03;21.60;99.90
23717;DHT22;22094;52.130;5.598;2023-08-08T15:30:29;20.90;99.90
23717;DHT22;22094;52.130;5.598;2023-08-08T15:32:55;21.20;99.90
23717;DHT22;22094;52.130;5.598;2023-08-08T15:37:47;20.70;99.90
23717;DHT22;22094;52.130;5.598;2023-08-08T15:40:13;20.60;99.90
23717;DHT22;22094;52.130;5.598;2023-08-08T15:45:11;20.70;99.90
23717;DHT22;22094;52.130;5.598;2023-08-08T15:50:07;24.10;99.90
23717;DHT22;22094;52.130;5.598;2023-08-08T15:52:35;22.40;99.90
23717;DHT22;22094;52.130;5.598;2023-08-08T15:55:01;21.90;99.90
23717;DHT22;22094;52.130;5.598;2023-08-08T15:57:29;21.80;99.90
23717;DHT22;22094;52.130;5.598;2023-08-08T15:59:55;21.00;99.90
23717;DHT22;22094;52.130;5.598;2023-08-08T16:02:21;20.90;99.90
23717;DHT22;22094;52.130;5.598;2023-08-08T16:04:47;22.00;99.90
23717;DHT22;22094;52.130;5.598;2023-08-08T16:07:14;23.60;99.90
23717;DHT22;22094;52.130;5.598;2023-08-08T16:09:44;23.30;99.90
23717;DHT22;22094;52.130;5.598;2023-08-08T16:14:36;22.80;99.90
23717;DHT22;22094;52.130;5.598;2023-08-08T16:17:02;23.50;99.90
23717;DHT22;22094;52.130;5.598;2023-08-08T16:21:54;21.50;99.90
23717;DHT22;22094;52.130;5.598;2023-08-08T16:24:20;21.00;99.90
23717;DHT22;22094;52.130;5.598;2023-08-08T16:26:45;20.40;99.90
23717;DHT22;22094;52.130;5.598;2023-08-08T16:31:38;20.00;99.90
23717;DHT22;22094;52.130;5.598;2023-08-08T16:34:04;20.80;99.90
23717;DHT22;22094;52.130;5.598;2023-08-08T16:36:30;20.00;99.90
23717;DHT22;22094;52.130;5.598;2023-08-08T16:43:59;20.40;99.90
23717;DHT22;22094;52.130;5.598;2023-08-08T16:46:25;20.40;99.90
23717;DHT22;22094;52.130;5.598;2023-08-08T16:48:52;20.70;99.90
23717;DHT22;22094;52.130;5.598;2023-08-08T16:51:17;20.80;99.90
23717;DHT22;22094;52.130;5.598;2023-08-08T16:53:44;22.00;99.90
23717;DHT22;22094;52.130;5.598;2023-08-08T16:58:36;19.80;99.90
23717;DHT22;22094;52.130;5.598;2023-08-08T17:01:02;19.40;99.90
23717;DHT22;22094;52.130;5.598;2023-08-08T17:05:56;18.80;99.90
23717;DHT22;22094;52.130;5.598;2023-08-08T17:08:22;18.60;99.90
23717;DHT22;22094;52.130;5.598;2023-08-08T17:10:47;18.40;99.90
23717;DHT22;22094;52.130;5.598;2023-08-08T17:18:05;18.20;99.90
23717;DHT22;22094;52.130;5.598;2023-08-08T17:25:23;18.10;99.90
23717;DHT22;22094;52.130;5.598;2023-08-08T17:37:34;17.40;99.90
23717;DHT22;22094;52.130;5.598;2023-08-08T17:40:00;17.40;99.90
23717;DHT22;22094;52.130;5.598;2023-08-08T17:42:25;17.20;1.00
23717;DHT22;22094;52.130;5.598;2023-08-08T17:47:17;17.20;99.90
23717;DHT22;22094;52.130;5.598;2023-08-08T17:52:09;17.10;99.90
23717;DHT22;22094;52.130;5.598;2023-08-08T17:57:01;16.80;1.00
23717;DHT22;22094;52.130;5.598;2023-08-08T18:01:54;16.20;1.00
23717;DHT22;22094;52.130;5.598;2023-08-08T18:06:47;15.80;41.90
23717;DHT22;22094;52.130;5.598;2023-08-08T18:11:39;15.50;99.90
23717;DHT22;22094;52.130;5.598;2023-08-08T18:14:09;15.40;1.00
23717;DHT22;22094;52.130;5.598;2023-08-08T18:16:36;15.50;1.00
23717;DHT22;22094;52.130;5.598;2023-08-08T18:19:02;15.20;1.00
23717;DHT22;22094;52.130;5.598;2023-08-08T18:21:29;15.30;99.90
23717;DHT22;22094;52.130;5.598;2023-08-08T18:31:15;15.20;1.00
23717;DHT22;22094;52.130;5.598;2023-08-08T18:33:45;15.20;1.00
23717;DHT22;22094;52.130;5.598;2023-08-08T18:36:11;15.30;1.00
23717;DHT22;22094;52.130;5.598;2023-08-08T18:38:36;15.30;1.00
23717;DHT22;22094;52.130;5.598;2023-08-08T18:41:03;15.30;1.00
23717;DHT22;22094;52.130;5.598;2023-08-08T18:43:28;15.30;1.00
23717;DHT22;22094;52.130;5.598;2023-08-08T18:45:54;15.30;99.90
23717;DHT22;22094;52.130;5.598;2023-08-08T18:48:20;15.80;80.60
23717;DHT22;22094;52.130;5.598;2023-08-08T18:50:46;15.40;99.90
23717;DHT22;22094;52.130;5.598;2023-08-08T18:53:15;15.50;1.00
23717;DHT22;22094;52.130;5.598;2023-08-08T18:55:41;15.30;99.90
23717;DHT22;22094;52.130;5.598;2023-08-08T18:58:08;15.30;99.90
23717;DHT22;22094;52.130;5.598;2023-08-08T19:00:34;15.20;1.00
23717;DHT22;22094;52.130;5.598;2023-08-08T19:03:00;15.50;1.00
23717;DHT22;22094;52.130;5.598;2023-08-08T19:05:26;15.20;82.90
23717;DHT22;22094;52.130;5.598;2023-08-08T19:07:52;15.20;99.90
23717;DHT22;22094;52.130;5.598;2023-08-08T19:10:18;15.10;99.90
23717;DHT22;22094;52.130;5.598;2023-08-08T19:12:44;15.10;99.90
23717;DHT22;22094;52.130;5.598;2023-08-08T19:15:10;15.10;99.90
23717;DHT22;22094;52.130;5.598;2023-08-08T19:17:36;15.20;1.00
23717;DHT22;22094;52.130;5.598;2023-08-08T19:20:02;15.10;1.00
23717;DHT22;22094;52.130;5.598;2023-08-08T19:22:27;15.00;1.00
23717;DHT22;22094;52.130;5.598;2023-08-08T19:24:53;14.90;1.00
23717;DHT22;22094;52.130;5.598;2023-08-08T19:27:20;14.70;1.00
23717;DHT22;22094;52.130;5.598;2023-08-08T19:29:46;14.70;1.00
23717;DHT22;22094;52.130;5.598;2023-08-08T19:32:12;14.70;1.00
23717;DHT22;22094;52.130;5.598;2023-08-08T19:34:37;14.70;1.00
23717;DHT22;22094;52.130;5.598;2023-08-08T19:37:03;14.70;1.00
23717;DHT22;22094;52.130;5.598;2023-08-08T19:39:29;14.60;1.00
23717;DHT22;22094;52.130;5.598;2023-08-08T19:41:54;14.60;1.00
23717;DHT22;22094;52.130;5.598;2023-08-08T19:44:21;14.50;1.00
23717;DHT22;22094;52.130;5.598;2023-08-08T19:46:47;14.40;5.00
23717;DHT22;22094;52.130;5.598;2023-08-08T19:49:12;14.70;2.40
23717;DHT22;22094;52.130;5.598;2023-08-08T19:51:38;14.70;1.00
23717;DHT22;22094;52.130;5.598;2023-08-08T19:54:04;14.50;1.00
23717;DHT22;22094;52.130;5.598;2023-08-08T19:56:31;14.50;1.00
23717;DHT22;22094;52.130;5.598;2023-08-08T19:58:57;14.50;1.00
23717;DHT22;22094;52.130;5.598;2023-08-08T20:01:22;14.80;1.00
23717;DHT22;22094;52.130;5.598;2023-08-08T20:03:49;14.40;1.00
23717;DHT22;22094;52.130;5.598;2023-08-08T20:06:14;14.30;1.00
23717;DHT22;22094;52.130;5.598;2023-08-08T20:08:40;14.30;1.00
23717;DHT22;22094;52.130;5.598;2023-08-08T20:11:06;14.30;1.00
23717;DHT22;22094;52.130;5.598;2023-08-08T20:13:32;14.30;2.10
23717;DHT22;22094;52.130;5.598;2023-08-08T20:15:58;14.30;1.00
23717;DHT22;22094;52.130;5.598;2023-08-08T20:18:23;14.30;1.00
23717;DHT22;22094;52.130;5.598;2023-08-08T20:20:49;14.30;6.00
23717;DHT22;22094;52.130;5.598;2023-08-08T20:23:15;14.20;9.10
23717;DHT22;22094;52.130;5.598;2023-08-08T20:25:40;14.30;16.30
23717;DHT22;22094;52.130;5.598;2023-08-08T20:28:06;14.20;23.50
23717;DHT22;22094;52.130;5.598;2023-08-08T20:30:33;14.20;45.50
23717;DHT22;22094;52.130;5.598;2023-08-08T20:33:01;14.20;57.10
23717;DHT22;22094;52.130;5.598;2023-08-08T20:35:27;14.20;65.50
23717;DHT22;22094;52.130;5.598;2023-08-08T20:37:53;14.40;82.90
23717;DHT22;22094;52.130;5.598;2023-08-08T20:40:19;14.30;93.40
23717;DHT22;22094;52.130;5.598;2023-08-08T20:42:45;14.20;92.50
23717;DHT22;22094;52.130;5.598;2023-08-08T20:45:11;14.30;92.50
23717;DHT22;22094;52.130;5.598;2023-08-08T20:47:37;14.20;90.40
23717;DHT22;22094;52.130;5.598;2023-08-08T20:50:04;14.20;82.80
23717;DHT22;22094;52.130;5.598;2023-08-08T20:52:31;14.20;90.70
23717;DHT22;22094;52.130;5.598;2023-08-08T20:54:59;14.20;85.70
23717;DHT22;22094;52.130;5.598;2023-08-08T20:57:25;14.20;84.40
23717;DHT22;22094;52.130;5.598;2023-08-08T20:59:50;14.30;90.50
23717;DHT22;22094;52.130;5.598;2023-08-08T21:02:16;14.30;85.70
23717;DHT22;22094;52.130;5.598;2023-08-08T21:04:41;14.30;84.40
23717;DHT22;22094;52.130;5.598;2023-08-08T21:07:07;14.20;84.90
23717;DHT22;22094;52.130;5.598;2023-08-08T21:09:38;14.20;91.30
23717;DHT22;22094;52.130;5.598;2023-08-08T21:12:04;14.20;94.40
23717;DHT22;22094;52.130;5.598;2023-08-08T21:14:29;14.20;98.30